Flight Track Log - Related Links

Times and Time Zones

All times are in EDT time to prevent confusion due to time zone crossing. See the AAY883 flight status page for this flight to view local times or setup timezone preferences in your user account.

Time Position Orientation Groundspeed Altitude Reporting Facility
EDT Latitude Longitude Course Direction KTS MPH feet Rate Location/Type
Sun 07:42:57 PM 42.8128 -85.5042 173° South 174 200 2,900  Level Chicago Center
Sun 07:48:00 PM 42.1817 -85.3627 173° South  Level Estimated
Sun 07:48:47 PM 42.3020 -85.4063 173° South 382 440 15,300  Level FlightAware
Sun 07:49:17 PM 42.2525 -85.3981 173° South 387 445 16,300 1,944 Climbing FlightAware
Sun 07:49:58 PM 42.1760 -85.3852 173° South 396 456 17,600 1,835 Climbing FlightAware
Sun 07:51:18 PM 42.0269 -85.3601 173° South 407 468 20,000 1,550 Climbing FlightAware
Sun 07:51:58 PM 41.9502 -85.3475 173° South 423 487 20,700 1,457 Climbing FlightAware
Sun 07:52:28 PM 41.9002 -85.3391 171° South 421 484 21,700 2,151 Climbing FlightAware
Sun 07:52:51 PM 41.8502 -85.3201 158° South 417 480 22,600 2,510 Climbing FlightAware
Sun 07:54:06 PM 41.7214 -85.2500 157° South 384 442 25,800 1,941 Climbing FlightAware
Sun 07:55:07 PM 41.6338 -85.2019 158° South 397 457 27,000 655 Climbing FlightAware
Sun 07:55:56 PM 41.5318 -85.1462 158° South 436 502 27,000 393 Level FlightAware
Sun 07:57:55 PM 41.2942 -85.0525 158° South 447 514 28,100 564 Climbing FlightAware
Sun 07:58:25 PM 41.2536 -85.0497 158° South 463 533 28,400 652 Climbing Chicago Center
Sun 07:59:27 PM 41.1217 -85.0394 177° South 468 539 29,100 919 Climbing Chicago Center
Sun 08:00:29 PM 40.9628 -85.0292 177° South 473 544 30,300 968 Climbing Chicago Center
Sun 08:01:31 PM 40.8281 -85.0192 177° South 479 551 31,100 829 Climbing Chicago Center
Sun 08:02:32 PM 40.6917 -85.0083 177° South 486 559 32,000 980 Climbing Chicago Center
Sun 08:03:09 PM 40.6175 -85.0050 178° South 486 559 32,700 1,152 Climbing Indianapolis Center
Sun 08:04:11 PM 40.4839 -84.9956 177° South 486 559 33,900 629 Climbing Indianapolis Center
Sun 08:05:13 PM 40.3222 -84.9844 177° South 486 559 34,000 48 Climbing Indianapolis Center
Sun 08:06:15 PM 40.1903 -84.9747 177° South 481 554 34,000  Level Indianapolis Center
Sun 08:07:16 PM 40.0539 -84.9650 177° South 481 554 34,000  Level Indianapolis Center
Sun 08:08:18 PM 39.9200 -84.9556 177° South 482 555 34,000 700 Level Indianapolis Center
Sun 08:10:59 PM 39.5554 -84.9298 177° South 484 557 36,600 541 Climbing FlightAware
Sun 08:13:51 PM 39.3405 -84.9152 177° South 467 537 37,000 110 Climbing FlightAware
Sun 08:14:38 PM 39.0682 -84.8965 177° South 467 537 37,000  Level FlightAware
Sun 08:15:20 PM 38.9779 -84.8903 177° South 461 531 37,000  Level FlightAware
Sun 08:15:50 PM 38.9144 -84.8858 177° South 465 535 37,000  Level FlightAware
Sun 08:16:23 PM 38.8423 -84.8810 177° South 467 537 37,000  Level FlightAware
Sun 08:16:54 PM 38.7770 -84.8764 177° South 467 537 37,000  Level FlightAware (KCVG)
Sun 08:17:35 PM 38.6886 -84.8707 177° South 466 536 37,000 85 Level FlightAware
Sun 08:18:05 PM 38.6225 -84.8663 177° South 463 533 37,100  Climbing FlightAware
Sun 08:19:01 PM 38.5042 -84.8809 195° South 464 534 37,000 -57 Descending FlightAware
Sun 08:19:51 PM 38.4055 -84.9148 195° South 463 533 37,000  Level FlightAware (KCVG)
Sun 08:21:01 PM 38.2569 -84.9655 195° South 462 532 37,000  Level FlightAware
Sun 08:21:40 PM 38.1757 -84.9932 195° South 463 533 37,000  Level FlightAware (KCVG)
Sun 08:22:10 PM 38.1137 -85.0145 195° South 462 532 37,000  Level FlightAware (KCVG)
Sun 08:23:02 PM 38.0055 -85.0514 195° South 463 533 37,000  Level FlightAware
Sun 08:24:01 PM 37.8822 -85.0925 194° South 463 533 37,000  Level FlightAware
Sun 08:24:59 PM 37.7633 -85.1210 180° South 465 535 37,000  Level FlightAware
Sun 08:26:02 PM 37.6271 -85.1094 176° South 463 533 37,000  Level FlightAware
Sun 08:27:02 PM 37.4970 -85.0958 175° South 463 533 37,000  Level FlightAware
Sun 08:28:03 PM 37.3678 -85.0810 175° South 466 536 37,000  Level FlightAware
Sun 08:29:03 PM 37.2385 -85.0666 175° South 467 537 37,000  Level FlightAware
Sun 08:30:02 PM 37.1104 -85.0522 175° South 469 540 37,000  Level FlightAware
Sun 08:31:10 PM 36.9662 -85.0361 175° South 467 537 37,000  Level FlightAware
Sun 08:32:23 PM 36.8061 -85.0183 175° South 464 534 37,000  Level FlightAware
Sun 08:33:35 PM 36.6502 -85.0009 175° South 463 533 37,000  Level FlightAware
Sun 08:36:36 PM 36.2673 -84.9589 175° South 458 527 37,000  Level FlightAware
Sun 08:37:49 PM 36.1114 -84.9417 175° South 458 527 37,000  Level FlightAware
Sun 08:41:03 PM 36.7862 -85.0161 175° South 464 534 37,000  Level FlightAware (KMDQ)
Sun 08:45:26 PM 35.6940 -84.8967 175° South 458 527 37,000  Level FlightAware (KMDQ)
Sun 08:49:16 PM 34.6552 -84.7861 175° South 449 517 37,000  Level FlightAware (KDZJ)
Sun 08:49:55 PM 34.5753 -84.7777 175° South 450 518 37,000  Level FlightAware (KDZJ)
Sun 08:50:36 PM 34.4890 -84.7686 175° South 450 518 37,000  Level FlightAware (KDZJ)
Sun 08:51:16 PM 34.4073 -84.7600 175° South 452 520 37,000  Level FlightAware (KDZJ)
Sun 08:51:55 PM 34.3268 -84.7517 175° South 452 520 37,000  Level FlightAware (KDZJ)
Sun 08:52:36 PM 34.2420 -84.7427 175° South 454 522 37,000  Level FlightAware (KDZJ)
Sun 08:53:16 PM 34.1590 -84.7341 175° South 454 522 37,000  Level FlightAware (KDZJ)
Sun 08:53:56 PM 34.0739 -84.7253 175° South 454 522 37,000  Level FlightAware (KDZJ)
Sun 08:54:36 PM 33.9910 -84.7165 175° South 455 524 37,000  Level FlightAware (KDZJ)
Sun 08:55:16 PM 33.9060 -84.7077 175° South 450 518 37,000  Level FlightAware (KDZJ)
Sun 08:55:51 PM 33.8328 -84.7002 175° South 449 517 37,000  Level FlightAware (KDZJ)
Sun 08:57:03 PM 33.7050 -84.6906 175° South 463 533 37,000  Level Atlanta Center
Sun 08:58:03 PM 33.5756 -84.6769 175° South 463 533 37,000  Level Atlanta Center
Sun 08:59:03 PM 33.4503 -84.6661 176° South 463 533 37,000  Level Atlanta Center
Sun 09:00:03 PM 33.3231 -84.6503 174° South 463 533 37,000  Level Atlanta Center
Sun 09:01:03 PM 33.1936 -84.6394 176° South 463 533 37,000  Level Atlanta Center
Sun 09:02:03 PM 33.0686 -84.6264 175° South 463 533 37,000  Level Atlanta Center
Sun 09:03:03 PM 32.9392 -84.6131 175° South 463 533 37,000  Level Atlanta Center
Sun 09:04:03 PM 32.8097 -84.6000 175° South 463 533 37,000 -50 Level Atlanta Center
Sun 09:05:03 PM 32.6722 -84.5842 174° South 458 527 36,900  Descending Atlanta Center
Sun 09:06:03 PM 32.5408 -84.5736 176° South 465 535 37,000 50 Climbing Atlanta Center
Sun 09:07:03 PM 32.4133 -84.5581 174° South 465 535 37,000  Level Atlanta Center
Sun 09:08:34 PM 32.2414 -84.5383 174° South 475 547 37,000  Level Jacksonville Center
Sun 09:09:34 PM 32.0872 -84.5233 175° South 475 547 37,000  Level Jacksonville Center
Sun 09:10:34 PM 31.9578 -84.5111 175° South 475 547 37,000  Level Jacksonville Center
Sun 09:11:34 PM 31.8311 -84.4722 165° South 475 547 37,000  Level Jacksonville Center
Sun 09:12:34 PM 31.7061 -84.4383 167° South 470 541 37,000  Level Jacksonville Center
Sun 09:17:13 PM 31.1300 -84.2615 161° South 460 529 37,000  Level FlightAware (KONZ)
Sun 09:18:05 PM 31.0291 -84.2211 161° South 463 533 37,000  Level FlightAware (KONZ)
Sun 09:18:52 PM 30.9299 -84.1813 161° South 465 535 37,000  Level FlightAware (KONZ)
Sun 09:19:24 PM 30.8630 -84.1545 161° South 468 539 37,000  Level FlightAware (KONZ)
Sun 09:20:03 PM 30.7939 -84.1269 161° South 470 541 37,000  Level FlightAware
Sun 09:20:33 PM 30.7214 -84.0980 161° South 471 542 37,000 -265 Level FlightAware
Sun 09:21:11 PM 30.6439 -84.0672 161° South 466 536 36,700 -692 Descending FlightAware
Sun 09:21:51 PM 30.6110 -84.0541 161° South 469 540 36,100 -943 Descending FlightAware
Sun 09:22:21 PM 30.4987 -84.0093 161° South 472 543 35,600 -952 Descending FlightAware
Sun 09:22:54 PM 30.4314 -83.9828 161° South 474 545 35,100 -1,014 Descending FlightAware (KONZ)
Sun 09:23:32 PM 30.3560 -83.9528 161° South 479 551 34,400 -1,029 Descending FlightAware
Sun 09:24:04 PM 30.2880 -83.9261 161° South 483 556 33,900 -968 Descending FlightAware (KONZ)
Sun 09:24:34 PM 30.2205 -83.8995 161° South 488 562 33,400 -1,065 Descending FlightAware (KONZ)
Sun 09:25:06 PM 30.2248 -83.9012 161° South 488 562 32,800 -972 Descending FlightAware
Sun 09:26:56 PM 30.0405 -83.8900 185° South 454 522 31,100 -851 Descending FlightAware (KONZ)
Sun 09:27:34 PM 29.8492 -83.9103 185° South 473 544 30,700 -857 Descending Jacksonville Center
Sun 09:28:34 PM 29.7258 -83.9211 184° South 467 537 29,700 -1,000 Descending Jacksonville Center
Sun 09:29:34 PM 29.6025 -83.9317 184° South 457 526 28,700 -950 Descending Jacksonville Center
Sun 09:30:34 PM 29.4817 -83.9208 176° South 450 518 27,800 -950 Descending Jacksonville Center
Sun 09:31:34 PM 29.3628 -83.9075 174° South 437 503 26,800 -950 Descending Jacksonville Center
Sun 09:32:34 PM 29.2458 -83.8944 174° South 432 497 25,900 -950 Descending Jacksonville Center
Sun 09:33:34 PM 29.1397 -83.8389 155° Southeast 416 479 24,900 -1,008 Descending Jacksonville Center
Sun 09:34:33 PM 29.0550 -83.7431 135° Southeast 416 479 23,900 -950 Descending Jacksonville Center
Sun 09:35:34 PM 28.9761 -83.6497 134° Southeast 411 473 23,000 -942 Descending Jacksonville Center
Sun 09:36:34 PM 28.8994 -83.5589 134° Southeast 405 466 22,000 -900 Descending Jacksonville Center
Sun 09:37:34 PM 28.8247 -83.4683 133° Southeast 394 453 21,200 -400 Descending Jacksonville Center
Sun 09:38:34 PM 28.7458 -83.3803 136° Southeast 394 453 21,200 -655 Level Jacksonville Center
Sun 09:39:33 PM 28.6689 -83.2900 134° Southeast 394 453 19,900 -2,022 Descending Jacksonville Center
Sun 09:41:35 PM 28.5000 -83.1000 135° Southeast 392 451 15,100 -2,209 Descending Tampa TRACON
Sun 09:42:35 PM 28.4333 -83.0167 132° Southeast 373 429 13,200 -2,100 Descending Tampa TRACON
Sun 09:43:35 PM 28.3333 -82.9500 150° Southeast 367 422 10,900 -1,600 Descending Tampa TRACON
Sun 09:44:35 PM 28.2667 -82.9000 147° Southeast 303 349 10,000 -1,263 Descending Tampa TRACON
Sun 09:45:29 PM 28.2000 -82.8833 168° South 282 325 8,500 -1,500 Descending Tampa TRACON
Sun 09:46:35 PM 28.1167 -82.8333 152° Southeast 284 327 7,000 -1,381 Descending Tampa TRACON
Sun 09:47:35 PM 28.0333 -82.8000 161° South 277 319 5,600 -1,429 Descending Tampa TRACON
Sun 09:48:41 PM 27.9667 -82.7833 168° South 266 306 4,000 -1,167 Descending Tampa TRACON
Sun 09:49:23 PM 27.9167 -82.7667 164° South 234 269 3,500 -941 Descending Tampa TRACON
Sun 09:50:23 PM 27.8667 -82.7500 164° South 198 228 2,400 -789 Descending Tampa TRACON
Sun 09:51:17 PM 27.8333 -82.7333 156° South 181 208 2,000 -522 Descending Tampa TRACON
Sun 09:52:18 PM 27.8333 -82.6833 90° East 168 193 1,400 -694 Descending Tampa TRACON
Sun 09:53:18 PM 27.8833 -82.6833 360° North 142 163 600 -800 Descending Tampa TRACON

Login

Don't have an account? Register now (free) for customized features, flight alerts, and more!